Silifke, Turkey
Current Conditions -  °F | °C
As of 10:20 AM on Monday 24 Nov 2014 (Local Time) from LTAF Reporting Station
Scattered Clouds Scattered Clouds  
Wind Chill: 63°   Ceiling: Unl
Heat Index: 63°   Visibility: 6mi
Dew Point: 27°   Wind: 13mph
Humidity: 26%   Direction: 20°NNE
Pressure: 30"   Gusts: NA
Location:  36.37°N, 33.93°E
Report Text: LTAF 240820Z 02011KT 9999 SCT036 17/M03 Q1016 NOSIG
Loading
Personal Weather Stations






























Interactive Weather Map New forecast layout! Learn more

10-Day Weather Forecast

Advertisements
Track Severe Weather on mobile